sensor_id;sensor_type;location;lat;lon;timestamp;pressure;altitude;pressure_sealevel;temperature;humidity
47712;BME280;57457;51.634;5.886;2023-08-17T00:10:06;101700;;;19.7;80.3
47712;BME280;57457;51.634;5.886;2023-08-17T00:36:45;101700;;;19.6;79.0
47712;BME280;57457;51.634;5.886;2023-08-17T00:50:05;101700;;;19.5;79.2
47712;BME280;57457;51.634;5.886;2023-08-17T01:03:25;101700;;;19.4;79.7
47712;BME280;57457;51.634;5.886;2023-08-17T01:16:45;101700;;;19.2;80.3
47712;BME280;57457;51.634;5.886;2023-08-17T01:30:04;101700;;;18.9;80.8
47712;BME280;57457;51.634;5.886;2023-08-17T01:56:44;101700;;;18.5;81.6
47712;BME280;57457;51.634;5.886;2023-08-17T02:23:24;101700;;;18.1;82.5
47712;BME280;57457;51.634;5.886;2023-08-17T02:36:44;101700;;;17.9;82.8
47712;BME280;57457;51.634;5.886;2023-08-17T02:50:03;101700;;;17.8;82.9
47712;BME280;57457;51.634;5.886;2023-08-17T03:03:23;101700;;;17.7;82.7
47712;BME280;57457;51.634;5.886;2023-08-17T03:16:43;101700;;;17.8;82.5
47712;BME280;57457;51.634;5.886;2023-08-17T03:30:03;101700;;;17.8;82.4
47712;BME280;57457;51.634;5.886;2023-08-17T03:43:23;101700;;;17.9;82.3
47712;BME280;57457;51.634;5.886;2023-08-17T03:56:42;101600;;;17.9;82.4
47712;BME280;57457;51.634;5.886;2023-08-17T04:10:02;101600;;;17.8;82.7
47712;BME280;57457;51.634;5.886;2023-08-17T04:23:22;101700;;;17.7;83.0
47712;BME280;57457;51.634;5.886;2023-08-17T04:36:42;101700;;;17.6;83.2
47712;BME280;57457;51.634;5.886;2023-08-17T04:50:02;101700;;;17.5;83.1
47712;BME280;57457;51.634;5.886;2023-08-17T05:03:21;101700;;;17.5;83.1
47712;BME280;57457;51.634;5.886;2023-08-17T05:16:41;101700;;;17.5;82.9
47712;BME280;57457;51.634;5.886;2023-08-17T05:30:01;101700;;;17.6;82.7
47712;BME280;57457;51.634;5.886;2023-08-17T05:43:21;101700;;;17.6;82.7
47712;BME280;57457;51.634;5.886;2023-08-17T05:56:41;101700;;;17.7;82.9
47712;BME280;57457;51.634;5.886;2023-08-17T06:10:00;101700;;;17.7;82.6
47712;BME280;57457;51.634;5.886;2023-08-17T06:36:40;101700;;;18.1;81.8
47712;BME280;57457;51.634;5.886;2023-08-17T06:50:00;101700;;;18.2;82.0
47712;BME280;57457;51.634;5.886;2023-08-17T07:03:20;101700;;;18.4;81.7
47712;BME280;57457;51.634;5.886;2023-08-17T07:16:39;101700;;;18.6;81.1
47712;BME280;57457;51.634;5.886;2023-08-17T07:29:59;101700;;;18.8;80.5
47712;BME280;57457;51.634;5.886;2023-08-17T07:43:19;101700;;;19.1;80.5
47712;BME280;57457;51.634;5.886;2023-08-17T07:56:39;101700;;;19.2;80.4
47712;BME280;57457;51.634;5.886;2023-08-17T08:09:59;101700;;;19.3;79.7
47712;BME280;57457;51.634;5.886;2023-08-17T08:23:19;101700;;;19.5;80.1
47712;BME280;57457;51.634;5.886;2023-08-17T08:36:38;101700;;;19.6;80.2
47712;BME280;57457;51.634;5.886;2023-08-17T08:49:58;101700;;;19.7;80.1
47712;BME280;57457;51.634;5.886;2023-08-17T09:03:18;101700;;;19.8;79.3
47712;BME280;57457;51.634;5.886;2023-08-17T09:16:38;101700;;;20.0;79.3
47712;BME280;57457;51.634;5.886;2023-08-17T09:29:58;101700;;;20.3;78.8
47712;BME280;57457;51.634;5.886;2023-08-17T09:43:17;101700;;;20.4;78.8
47712;BME280;57457;51.634;5.886;2023-08-17T09:56:37;101700;;;20.6;78.9
47712;BME280;57457;51.634;5.886;2023-08-17T10:09:57;101700;;;20.7;78.7
47712;BME280;57457;51.634;5.886;2023-08-17T10:23:17;101700;;;20.8;78.4
47712;BME280;57457;51.634;5.886;2023-08-17T10:36:37;101700;;;20.9;78.4
47712;BME280;57457;51.634;5.886;2023-08-17T10:49:56;101700;;;21.0;78.3
47712;BME280;57457;51.634;5.886;2023-08-17T11:03:16;101700;;;21.0;78.2
47712;BME280;57457;51.634;5.886;2023-08-17T11:16:36;101700;;;21.1;77.5
47712;BME280;57457;51.634;5.886;2023-08-17T11:29:56;101700;;;21.3;77.5
47712;BME280;57457;51.634;5.886;2023-08-17T11:43:16;101700;;;21.4;78.1
47712;BME280;57457;51.634;5.886;2023-08-17T11:56:36;101700;;;21.5;78.3
47712;BME280;57457;51.634;5.886;2023-08-17T12:09:55;101700;;;21.5;77.9
47712;BME280;57457;51.634;5.886;2023-08-17T12:23:15;101700;;;21.6;77.4
47712;BME280;57457;51.634;5.886;2023-08-17T12:36:35;101700;;;21.7;78.0
47712;BME280;57457;51.634;5.886;2023-08-17T12:49:55;101700;;;21.8;77.6
47712;BME280;57457;51.634;5.886;2023-08-17T13:03:14;101700;;;21.9;78.2
47712;BME280;57457;51.634;5.886;2023-08-17T13:16:34;101700;;;21.9;78.3
47712;BME280;57457;51.634;5.886;2023-08-17T13:29:54;101700;;;21.9;78.7
47712;BME280;57457;51.634;5.886;2023-08-17T13:43:14;101700;;;21.9;78.2
47712;BME280;57457;51.634;5.886;2023-08-17T13:56:34;101700;;;21.9;78.3
47712;BME280;57457;51.634;5.886;2023-08-17T14:09:53;101600;;;21.9;78.7
47712;BME280;57457;51.634;5.886;2023-08-17T14:23:13;101600;;;22.0;78.7
47712;BME280;57457;51.634;5.886;2023-08-17T14:36:33;101600;;;22.0;79.1
47712;BME280;57457;51.634;5.886;2023-08-17T14:49:53;101600;;;21.9;79.5
47712;BME280;57457;51.634;5.886;2023-08-17T15:03:13;101600;;;21.8;80.2
47712;BME280;57457;51.634;5.886;2023-08-17T15:16:32;101600;;;21.7;80.2
47712;BME280;57457;51.634;5.886;2023-08-17T15:29:52;101600;;;21.6;80.6
47712;BME280;57457;51.634;5.886;2023-08-17T15:43:12;101600;;;21.4;80.8
47712;BME280;57457;51.634;5.886;2023-08-17T15:56:32;101600;;;21.4;80.8
47712;BME280;57457;51.634;5.886;2023-08-17T16:09:52;101600;;;21.3;81.3
47712;BME280;57457;51.634;5.886;2023-08-17T16:23:12;101600;;;21.2;81.2
47712;BME280;57457;51.634;5.886;2023-08-17T16:36:31;101600;;;21.1;81.7
47712;BME280;57457;51.634;5.886;2023-08-17T16:49:51;101600;;;21.0;81.9
47712;BME280;57457;51.634;5.886;2023-08-17T17:03:11;101600;;;20.9;82.1
47712;BME280;57457;51.634;5.886;2023-08-17T17:16:31;101500;;;21.0;81.7
47712;BME280;57457;51.634;5.886;2023-08-17T17:29:51;101500;;;21.0;81.8
47712;BME280;57457;51.634;5.886;2023-08-17T17:43:10;101500;;;21.0;81.9
47712;BME280;57457;51.634;5.886;2023-08-17T17:56:30;101500;;;20.9;82.3
47712;BME280;57457;51.634;5.886;2023-08-17T18:09:50;101500;;;20.8;82.7
47712;BME280;57457;51.634;5.886;2023-08-17T18:23:10;101500;;;20.7;82.9
47712;BME280;57457;51.634;5.886;2023-08-17T18:36:30;101600;;;20.5;83.2
47712;BME280;57457;51.634;5.886;2023-08-17T18:49:49;101600;;;20.4;83.6
47712;BME280;57457;51.634;5.886;2023-08-17T19:03:09;101600;;;20.3;84.0
47712;BME280;57457;51.634;5.886;2023-08-17T19:16:29;101600;;;20.2;84.2
47712;BME280;57457;51.634;5.886;2023-08-17T19:29:49;101600;;;20.1;84.3
47712;BME280;57457;51.634;5.886;2023-08-17T19:43:09;101600;;;20.1;84.3
47712;BME280;57457;51.634;5.886;2023-08-17T19:56:29;101600;;;20.0;84.1
47712;BME280;57457;51.634;5.886;2023-08-17T20:09:48;101600;;;20.0;84.0
47712;BME280;57457;51.634;5.886;2023-08-17T20:23:08;101600;;;20.0;83.9
47712;BME280;57457;51.634;5.886;2023-08-17T20:36:28;101600;;;20.0;83.7
47712;BME280;57457;51.634;5.886;2023-08-17T20:49:48;101600;;;20.0;83.7
47712;BME280;57457;51.634;5.886;2023-08-17T21:03:08;101600;;;20.0;83.5
47712;BME280;57457;51.634;5.886;2023-08-17T21:16:27;101600;;;20.0;83.3
47712;BME280;57457;51.634;5.886;2023-08-17T21:29:47;101600;;;20.0;83.1
47712;BME280;57457;51.634;5.886;2023-08-17T21:43:07;101600;;;20.0;83.1
47712;BME280;57457;51.634;5.886;2023-08-17T21:56:27;101600;;;19.9;83.1
47712;BME280;57457;51.634;5.886;2023-08-17T22:09:47;101600;;;19.9;83.0
47712;BME280;57457;51.634;5.886;2023-08-17T22:23:06;101600;;;19.8;83.0
